Time;durP1;ratioP1;P1;durP2;ratioP2;P2;SDS_P1;SDS_P2;PMS_P1;PMS_P2;Temp;Humidity;BMP_temperature;BMP_pressure;BME280_temperature;BME280_humidity;BME280_pressure;Samples;Min_cycle;Max_cycle;Signal;HPM_P1;HPM_P2
2022/06/10 00:00:05;;;;;;;;;;;;;;;18.93;58.33;101552.81;5026821;28;19986;-46
2022/06/10 00:02:30;;;;;;;;;;;;;;;18.84;58.64;101557.06;5022417;28;19921;-45
2022/06/10 00:04:55;;;;;;;;;;;;;;;18.78;58.51;101568.25;5020444;28;20935;-47
2022/06/10 00:07:21;;;;;;;;;;;;;;;18.72;58.71;101568.72;5016282;28;19936;-46
2022/06/10 00:09:46;;;;;;;;;;;;;;;18.66;58.34;101571.88;5024466;28;19928;-46
2022/06/10 00:12:11;;;;;;;;;;;;;;;18.61;59.05;101574.91;5021341;28;19921;-46
2022/06/10 00:14:37;;;;;;;;;;;;;;;18.55;59.04;101567.41;5028482;28;20068;-46
2022/06/10 00:17:02;;;;;;;;;;;;;;;18.47;59.24;101570.66;5021825;28;19917;-46
2022/06/10 00:19:27;;;;;;;;;;;;;;;18.50;59.14;101570.44;5023290;28;19924;-46
2022/06/10 00:21:53;;;;;;;;;;;;;;;18.49;59.32;101579.41;5023405;28;20008;-46
2022/06/10 00:24:18;;;;;;;;;;;;;;;18.52;59.56;101583.63;5027506;28;19921;-46
2022/06/10 00:26:43;;;;;;;;;;;;;;;18.50;59.10;101591.75;5022199;28;19936;-46
2022/06/10 00:29:08;;;;;;;;;;;;;;;18.43;59.44;101596.72;5029655;28;20023;-45
2022/06/10 00:31:34;;;;;;;;;;;;;;;18.38;59.24;101590.03;5026309;28;19929;-46
2022/06/10 00:33:59;;;;;;;;;;;;;;;18.33;59.46;101594.88;5027432;28;19928;-46
2022/06/10 00:36:25;;;;;;;;;;;;;;;18.25;59.48;101596.31;5027172;28;19968;-46
2022/06/10 00:38:50;;;;;;;;;;;;;;;18.19;59.46;101594.13;5028686;28;19925;-46
2022/06/10 00:41:16;;;;;;;;;;;;;;;18.08;59.94;101607.41;5026448;28;19917;-46
2022/06/10 00:43:41;;;;;;;;;;;;;;;17.98;60.13;101612.59;5027543;28;19945;-46
2022/06/10 00:46:12;;;;;;;;;;;;;;;17.93;60.21;101609.38;5027169;28;19932;-47
2022/06/10 00:48:48;;;;;;;;;;;;;;;17.95;60.17;101610.13;5024787;28;19937;-46
2022/06/10 00:51:28;;;;;;;;;;;;;;;17.89;60.11;101614.09;5026317;28;19974;-45
2022/06/10 00:53:59;;;;;;;;;;;;;;;17.80;60.27;101614.78;5024152;28;19951;-47
2022/06/10 00:56:26;;;;;;;;;;;;;;;17.65;60.84;101622.94;5026972;28;19975;-46
2022/06/10 00:58:54;;;;;;;;;;;;;;;17.51;61.25;101616.00;5028507;28;19921;-48
2022/06/10 01:01:20;;;;;;;;;;;;;;;17.45;61.36;101618.25;5023853;28;19923;-47
2022/06/10 01:03:45;;;;;;;;;;;;;;;17.39;61.44;101629.31;5027034;28;19921;-48
2022/06/10 01:06:11;;;;;;;;;;;;;;;17.35;61.61;101623.38;5024972;28;19957;-46
2022/06/10 01:08:37;;;;;;;;;;;;;;;17.30;61.57;101622.84;5025077;28;20019;-45
2022/06/10 01:11:21;;;;;;;;;;;;;;;17.28;61.56;101625.66;5020774;28;19963;-46
2022/06/10 01:13:52;;;;;;;;;;;;;;;17.28;61.38;101628.31;5024168;28;19960;-45
2022/06/10 01:16:23;;;;;;;;;;;;;;;17.32;61.25;101632.41;5024983;28;19997;-49
2022/06/10 01:19:15;;;;;;;;;;;;;;;17.34;61.14;101646.47;5022032;28;19917;-48
2022/06/10 01:21:53;;;;;;;;;;;;;;;17.28;61.42;101651.38;5020115;28;20004;-46
2022/06/10 01:24:30;;;;;;;;;;;;;;;17.25;61.55;101647.13;5023342;28;19928;-45
2022/06/10 01:30:08;;;;;;;;;;;;;;;17.11;61.93;101657.91;5028113;28;19932;-46
2022/06/10 01:32:45;;;;;;;;;;;;;;;17.04;61.91;101642.38;5022139;28;19920;-46
2022/06/10 01:35:10;;;;;;;;;;;;;;;17.07;61.96;101651.97;5024264;28;20389;-46
2022/06/10 01:37:42;;;;;;;;;;;;;;;17.06;62.09;101648.44;5023566;28;19971;-45
2022/06/10 01:40:25;;;;;;;;;;;;;;;17.11;62.54;101645.44;5029066;28;19917;-47
2022/06/10 01:43:09;;;;;;;;;;;;;;;17.11;62.15;101640.13;5025407;28;19970;-46
2022/06/10 01:45:34;;;;;;;;;;;;;;;17.10;62.15;101637.59;5025598;28;20018;-48
2022/06/10 01:48:02;;;;;;;;;;;;;;;17.07;62.29;101644.00;5023107;28;19960;-46
2022/06/10 01:50:34;;;;;;;;;;;;;;;17.00;62.55;101646.25;5024189;28;20078;-46
2022/06/10 01:53:06;;;;;;;;;;;;;;;16.96;62.56;101643.88;5026608;28;19925;-46
2022/06/10 01:55:32;;;;;;;;;;;;;;;16.96;62.97;101651.84;5033365;28;19936;-46
2022/06/10 01:58:00;;;;;;;;;;;;;;;16.97;62.82;101658.88;5023058;28;19916;-47
2022/06/10 02:00:27;;;;;;;;;;;;;;;16.95;62.77;101658.13;5019741;28;19936;-48
2022/06/10 02:02:52;;;;;;;;;;;;;;;16.88;63.08;101655.88;5018854;28;19921;-45
2022/06/10 02:05:19;;;;;;;;;;;;;;;16.79;63.52;101672.47;5025389;28;19967;-45
2022/06/10 02:07:55;;;;;;;;;;;;;;;16.71;63.50;101657.03;5020604;28;20347;-45
2022/06/10 02:10:29;;;;;;;;;;;;;;;16.73;63.56;101667.59;5025673;28;19925;-46
2022/06/10 02:13:00;;;;;;;;;;;;;;;16.77;63.30;101679.72;5025236;28;19936;-45
2022/06/10 02:15:34;;;;;;;;;;;;;;;16.76;63.18;101684.16;5023404;28;19928;-46
2022/06/10 02:18:10;;;;;;;;;;;;;;;16.76;63.22;101681.50;5020306;28;19978;-45
2022/06/10 02:20:37;;;;;;;;;;;;;;;16.81;63.10;101688.31;5026663;28;20320;-47
2022/06/10 02:23:05;;;;;;;;;;;;;;;16.81;63.01;101685.66;5020149;28;21253;-46
2022/06/10 02:25:33;;;;;;;;;;;;;;;16.86;62.96;101681.72;5025193;28;19925;-46
2022/06/10 02:28:01;;;;;;;;;;;;;;;16.92;62.69;101685.75;5015947;28;19925;-48
2022/06/10 02:30:34;;;;;;;;;;;;;;;16.97;62.35;101701.41;5023346;28;19921;-45
2022/06/10 02:32:59;;;;;;;;;;;;;;;17.00;62.30;101707.38;5022994;28;20408;-47
2022/06/10 02:35:27;;;;;;;;;;;;;;;16.92;62.31;101701.69;5020911;28;19921;-48
2022/06/10 02:37:55;;;;;;;;;;;;;;;16.86;62.20;101710.13;5019673;28;19921;-46
2022/06/10 02:40:20;;;;;;;;;;;;;;;16.82;62.43;101719.25;5026523;28;19952;-45
2022/06/10 02:42:46;;;;;;;;;;;;;;;16.77;62.53;101717.75;5022627;28;19960;-46
2022/06/10 02:45:30;;;;;;;;;;;;;;;16.76;62.58;101726.69;5015940;28;20016;-46
2022/06/10 02:48:04;;;;;;;;;;;;;;;16.79;62.43;101730.09;5017684;28;20436;-45
2022/06/10 02:50:30;;;;;;;;;;;;;;;16.79;62.54;101735.41;5023690;28;20015;-47
2022/06/10 02:52:56;;;;;;;;;;;;;;;16.76;62.59;101737.31;5018715;28;20024;-46
2022/06/10 02:55:24;;;;;;;;;;;;;;;16.74;62.50;101739.22;5021405;28;20004;-47
2022/06/10 03:03:42;;;;;;;;;;;;;;;16.82;62.11;101748.50;5023993;28;19979;-46
2022/06/10 03:06:30;;;;;;;;;;;;;;;16.77;62.04;101749.66;5019320;28;20008;-46
2022/06/10 03:09:01;;;;;;;;;;;;;;;16.62;62.26;101745.38;5019037;28;19917;-47
2022/06/10 03:11:30;;;;;;;;;;;;;;;16.54;62.35;101753.03;5022216;28;19921;-48
2022/06/10 03:14:08;;;;;;;;;;;;;;;16.48;62.68;101758.72;5019516;28;20336;-47
2022/06/10 03:16:43;;;;;;;;;;;;;;;16.38;63.02;101758.50;5022232;28;19921;-46
2022/06/10 03:19:08;;;;;;;;;;;;;;;16.34;63.09;101764.94;5024142;28;20422;-45
2022/06/10 03:21:52;;;;;;;;;;;;;;;16.30;63.35;101761.66;5018883;28;20004;-47
2022/06/10 03:24:26;;;;;;;;;;;;;;;16.30;63.43;101759.88;5025984;28;19976;-48
2022/06/10 03:26:52;;;;;;;;;;;;;;;16.35;63.24;101767.53;5017510;28;19922;-49
2022/06/10 03:29:17;;;;;;;;;;;;;;;16.40;63.11;101762.78;5018969;28;19921;-46
2022/06/10 03:31:46;;;;;;;;;;;;;;;16.45;63.01;101770.44;5021930;28;20351;-47
2022/06/10 03:34:17;;;;;;;;;;;;;;;16.49;62.83;101765.75;5020598;28;19917;-47
2022/06/10 03:36:44;;;;;;;;;;;;;;;16.51;62.83;101774.47;5017277;28;19964;-46
2022/06/10 03:39:09;;;;;;;;;;;;;;;16.52;62.89;101777.03;5023112;28;19921;-46
2022/06/10 03:41:39;;;;;;;;;;;;;;;16.58;62.70;101781.06;5020462;28;19928;-46
2022/06/10 03:44:09;;;;;;;;;;;;;;;16.58;62.69;101792.56;5023502;28;19928;-50
2022/06/10 03:46:34;;;;;;;;;;;;;;;16.57;62.81;101790.84;5022823;28;19925;-47
2022/06/10 03:49:06;;;;;;;;;;;;;;;16.47;63.10;101795.09;5023508;28;19921;-47
2022/06/10 03:51:32;;;;;;;;;;;;;;;16.43;63.37;101805.03;5023396;28;20344;-47
2022/06/10 03:53:58;;;;;;;;;;;;;;;16.46;63.17;101799.53;5021091;28;20372;-48
2022/06/10 03:56:23;;;;;;;;;;;;;;;16.53;63.03;101807.94;5023464;28;19936;-46
2022/06/10 03:58:49;;;;;;;;;;;;;;;16.51;63.01;101809.00;5015387;28;19929;-49
2022/06/10 04:01:14;;;;;;;;;;;;;;;16.50;63.18;101815.28;5011743;28;19929;-48
2022/06/10 04:03:40;;;;;;;;;;;;;;;16.49;63.27;101813.56;5024585;28;19925;-46
2022/06/10 04:06:05;;;;;;;;;;;;;;;16.51;63.23;101822.28;5023755;28;19980;-47
2022/06/10 04:08:30;;;;;;;;;;;;;;;16.49;63.52;101819.72;5025703;28;22077;-49
2022/06/10 04:10:56;;;;;;;;;;;;;;;16.44;63.52;101824.50;5022909;28;21082;-48
2022/06/10 04:13:21;;;;;;;;;;;;;;;16.51;63.39;101827.59;5022765;28;19922;-47
2022/06/10 04:15:47;;;;;;;;;;;;;;;16.57;63.38;101829.84;5014123;28;20039;-46
2022/06/10 04:18:12;;;;;;;;;;;;;;;16.60;63.38;101832.31;5027314;28;19952;-46
2022/06/10 04:20:38;;;;;;;;;;;;;;;16.58;63.46;101837.72;5025799;28;19917;-47
2022/06/10 04:23:04;;;;;;;;;;;;;;;16.59;63.44;101831.47;5015177;28;19925;-47
2022/06/10 04:25:31;;;;;;;;;;;;;;;16.66;63.14;101839.88;5018290;28;19940;-46
2022/06/10 04:27:56;;;;;;;;;;;;;;;16.66;63.09;101837.22;5013307;28;19971;-46
2022/06/10 04:30:23;;;;;;;;;;;;;;;16.69;63.08;101847.66;5013619;28;19921;-47
2022/06/10 04:32:49;;;;;;;;;;;;;;;16.61;63.30;101852.59;5018235;28;20617;-46
2022/06/10 04:35:14;;;;;;;;;;;;;;;16.62;63.29;101856.97;5020702;28;19972;-47
2022/06/10 04:37:40;;;;;;;;;;;;;;;16.71;63.11;101855.50;5012479;28;19929;-46
2022/06/10 04:40:05;;;;;;;;;;;;;;;16.70;62.90;101854.69;5020388;28;19924;-48
2022/06/10 04:42:31;;;;;;;;;;;;;;;16.77;62.85;101860.44;5021657;28;19925;-46
2022/06/10 04:44:57;;;;;;;;;;;;;;;16.79;62.67;101862.97;5012855;28;20332;-47
2022/06/10 04:47:23;;;;;;;;;;;;;;;16.82;62.45;101866.28;5008699;28;19932;-46
2022/06/10 04:49:48;;;;;;;;;;;;;;;16.76;62.66;101864.03;5012803;28;19921;-47
2022/06/10 04:52:13;;;;;;;;;;;;;;;16.72;62.72;101874.00;5021318;28;19921;-47
2022/06/10 04:54:38;;;;;;;;;;;;;;;16.70;62.75;101870.63;5031048;28;20305;-46
2022/06/10 04:57:04;;;;;;;;;;;;;;;16.70;62.72;101867.97;5025563;28;20011;-45
2022/06/10 04:59:29;;;;;;;;;;;;;;;16.69;62.85;101868.06;5025882;28;19922;-46
2022/06/10 05:01:55;;;;;;;;;;;;;;;16.68;62.90;101861.03;5031249;28;19924;-46
2022/06/10 05:04:20;;;;;;;;;;;;;;;16.63;62.89;101871.13;5021499;28;19918;-47
2022/06/10 05:06:46;;;;;;;;;;;;;;;16.61;63.03;101871.22;5027730;28;19964;-47
2022/06/10 05:09:11;;;;;;;;;;;;;;;16.62;62.82;101867.59;5022402;28;19929;-46
2022/06/10 05:11:36;;;;;;;;;;;;;;;16.57;62.78;101862.59;5033326;28;19928;-46
2022/06/10 05:14:01;;;;;;;;;;;;;;;16.59;63.06;101871.31;5030839;28;19939;-50
2022/06/10 05:16:27;;;;;;;;;;;;;;;16.64;62.78;101881.66;5030043;28;19921;-46
2022/06/10 05:18:53;;;;;;;;;;;;;;;16.70;62.75;101877.72;5025703;28;19924;-46
2022/06/10 05:21:18;;;;;;;;;;;;;;;16.74;62.53;101866.78;5027311;28;19936;-47
2022/06/10 05:23:45;;;;;;;;;;;;;;;16.74;62.50;101872.09;5030077;28;19913;-46
2022/06/10 05:26:11;;;;;;;;;;;;;;;16.75;62.70;101876.47;5030627;28;19922;-46
2022/06/10 05:28:36;;;;;;;;;;;;;;;16.74;62.60;101877.41;5024683;28;19919;-46
2022/06/10 05:31:01;;;;;;;;;;;;;;;16.74;62.68;101872.09;5025284;28;19921;-46
2022/06/10 05:34:44;;;;;;;;;;;;;;;16.75;62.70;101878.28;5031845;28;19943;-46
2022/06/10 05:36:12;;;;;;;;;;;;;;;16.74;62.64;101890.72;5028634;28;19936;-46
2022/06/10 05:38:37;;;;;;;;;;;;;;;16.68;62.70;101885.81;5027897;28;20278;-47
2022/06/10 05:42:04;;;;;;;;;;;;;;;16.74;62.63;101901.34;5031861;28;19921;-46
2022/06/10 05:43:48;;;;;;;;;;;;;;;16.84;62.47;101892.78;5032803;28;19987;-47
2022/06/10 05:46:13;;;;;;;;;;;;;;;16.86;62.44;101898.84;5028918;28;20369;-46
2022/06/10 05:48:38;;;;;;;;;;;;;;;16.94;62.31;101898.34;5029610;28;19925;-49
2022/06/10 05:51:04;;;;;;;;;;;;;;;17.02;62.24;101902.19;5029119;28;19923;-46
2022/06/10 05:53:29;;;;;;;;;;;;;;;17.01;62.01;101902.31;5030052;28;19929;-47
2022/06/10 05:55:55;;;;;;;;;;;;;;;16.95;62.12;101910.69;5028543;28;19921;-47
2022/06/10 05:58:20;;;;;;;;;;;;;;;16.88;62.08;101923.50;5029426;28;19933;-46
2022/06/10 06:00:46;;;;;;;;;;;;;;;16.87;62.17;101916.47;5032568;28;19932;-46
2022/06/10 06:03:12;;;;;;;;;;;;;;;16.79;62.19;101916.13;5026176;28;19932;-48
2022/06/10 06:05:37;;;;;;;;;;;;;;;16.80;62.27;101913.38;5030917;28;19929;-46
2022/06/10 06:08:02;;;;;;;;;;;;;;;16.84;62.16;101919.34;5033961;28;19952;-49
2022/06/10 06:10:28;;;;;;;;;;;;;;;16.91;62.10;101923.31;5026981;28;20381;-45
2022/06/10 06:12:54;;;;;;;;;;;;;;;16.99;61.85;101926.34;5015213;28;19917;-47
2022/06/10 06:15:19;;;;;;;;;;;;;;;16.99;61.62;101929.00;5021393;28;19924;-47
2022/06/10 06:17:47;;;;;;;;;;;;;;;17.05;61.61;101925.94;5027462;28;19929;-46
2022/06/10 06:20:13;;;;;;;;;;;;;;;17.13;61.49;101928.06;5029169;28;19921;-46
2022/06/10 06:22:39;;;;;;;;;;;;;;;17.24;61.11;101931.84;5028924;28;19924;-45
2022/06/10 06:25:04;;;;;;;;;;;;;;;17.29;60.82;101946.53;5029614;28;19924;-46
2022/06/10 06:27:30;;;;;;;;;;;;;;;17.36;60.57;101937.16;5039067;28;19921;-46
2022/06/10 06:29:55;;;;;;;;;;;;;;;17.35;60.24;101940.78;5026586;28;19932;-45
2022/06/10 06:32:20;;;;;;;;;;;;;;;17.35;60.32;101937.28;5029765;28;19983;-46
2022/06/10 06:34:46;;;;;;;;;;;;;;;17.35;60.25;101945.25;5029655;28;19932;-47
2022/06/10 06:37:14;;;;;;;;;;;;;;;17.35;60.02;101942.59;5033957;28;20493;-46
2022/06/10 06:39:39;;;;;;;;;;;;;;;17.33;59.95;101937.38;5031367;28;19940;-46
2022/06/10 06:42:05;;;;;;;;;;;;;;;17.35;60.05;101942.59;5030315;28;19964;-46
2022/06/10 06:44:30;;;;;;;;;;;;;;;17.40;60.05;101952.94;5027870;28;19921;-46
2022/06/10 06:46:55;;;;;;;;;;;;;;;17.41;59.74;101951.97;5029862;28;20373;-46
2022/06/10 06:49:22;;;;;;;;;;;;;;;17.40;59.80;101952.94;5025887;28;20357;-46
2022/06/10 06:51:48;;;;;;;;;;;;;;;17.43;59.84;101958.06;5035391;28;20377;-46
2022/06/10 06:54:14;;;;;;;;;;;;;;;17.40;59.60;101952.94;5027935;28;19943;-46
2022/06/10 06:56:39;;;;;;;;;;;;;;;17.34;59.56;101947.06;5026029;28;19930;-46
2022/06/10 06:59:05;;;;;;;;;;;;;;;17.32;59.39;101956.94;5030258;28;20300;-46
2022/06/10 07:01:31;;;;;;;;;;;;;;;17.30;59.31;101953.56;5033262;28;19924;-46
2022/06/10 07:03:56;;;;;;;;;;;;;;;17.30;59.35;101953.56;5023334;28;19921;-47
2022/06/10 07:06:22;;;;;;;;;;;;;;;17.30;59.19;101956.22;5025396;28;19933;-46
2022/06/10 07:08:47;;;;;;;;;;;;;;;17.32;59.03;101951.63;5030409;28;20304;-46
2022/06/10 07:11:12;;;;;;;;;;;;;;;17.41;59.06;101954.63;5025801;28;19956;-45
2022/06/10 07:13:38;;;;;;;;;;;;;;;17.49;58.79;101961.16;5027035;28;19917;-46
2022/06/10 07:16:04;;;;;;;;;;;;;;;17.63;58.67;101954.88;5025290;28;19921;-45
2022/06/10 07:18:30;;;;;;;;;;;;;;;17.77;58.36;101975.22;5028511;28;19913;-48
2022/06/10 07:20:56;;;;;;;;;;;;;;;17.84;58.14;101962.34;5026674;28;19932;-46
2022/06/10 07:23:21;;;;;;;;;;;;;;;17.95;58.12;101965.09;5027074;28;19936;-46
2022/06/10 07:25:47;;;;;;;;;;;;;;;17.99;57.79;101971.13;5023229;28;19925;-46
2022/06/10 07:28:13;;;;;;;;;;;;;;;17.94;57.70;101966.06;5026700;28;19917;-47
2022/06/10 07:30:39;;;;;;;;;;;;;;;17.94;57.64;101957.22;5026458;28;20039;-48
2022/06/10 07:33:04;;;;;;;;;;;;;;;17.95;57.87;101973.09;5024415;28;19917;-46
2022/06/10 07:35:30;;;;;;;;;;;;;;;17.97;57.77;101963.22;5023374;28;19922;-47
2022/06/10 07:37:57;;;;;;;;;;;;;;;17.97;57.77;101989.84;5027036;28;19925;-46
2022/06/10 07:43:11;;;;;;;;;;;;;;;18.08;57.38;101970.47;5026110;28;19935;-47
2022/06/10 07:45:37;;;;;;;;;;;;;;;18.13;57.31;101978.13;5027223;28;20377;-46
2022/06/10 07:48:02;;;;;;;;;;;;;;;18.12;57.27;101971.09;5026425;28;19939;-48
2022/06/10 07:50:28;;;;;;;;;;;;;;;18.08;57.18;101977.56;5024931;28;19918;-45
2022/06/10 07:52:54;;;;;;;;;;;;;;;18.08;57.40;101980.25;5025632;28;20270;-45
2022/06/10 07:55:19;;;;;;;;;;;;;;;18.09;57.13;101974.81;5024620;28;19975;-49
2022/06/10 07:57:45;;;;;;;;;;;;;;;18.12;56.84;101989.72;5039135;28;19922;-47
2022/06/10 08:00:11;;;;;;;;;;;;;;;18.04;56.69;101976.13;5022459;28;19987;-47
2022/06/10 08:02:37;;;;;;;;;;;;;;;18.04;56.77;101981.44;5026789;28;19917;-46
2022/06/10 08:05:03;;;;;;;;;;;;;;;18.11;56.73;101980.03;5026328;28;19943;-46
2022/06/10 08:07:28;;;;;;;;;;;;;;;18.16;56.67;101972.59;5016594;28;19996;-46
2022/06/10 08:09:54;;;;;;;;;;;;;;;18.17;56.45;101984.94;5021392;28;20052;-47
2022/06/10 08:12:19;;;;;;;;;;;;;;;18.20;56.42;101976.75;5020603;28;20301;-48
2022/06/10 08:14:44;;;;;;;;;;;;;;;18.25;56.25;101971.91;5023027;28;19925;-48
2022/06/10 08:17:10;;;;;;;;;;;;;;;18.31;56.09;101978.63;5022274;28;19928;-48
2022/06/10 08:19:35;;;;;;;;;;;;;;;18.36;56.02;101984.47;5027571;28;20014;-46
2022/06/10 08:24:45;;;;;;;;;;;;;;;18.31;55.91;101986.63;5021931;28;19968;-45
2022/06/10 08:27:10;;;;;;;;;;;;;;;18.36;55.94;101994.31;5027023;28;19957;-46
2022/06/10 08:29:35;;;;;;;;;;;;;;;18.36;55.54;101986.31;5028340;28;20361;-47
2022/06/10 08:32:00;;;;;;;;;;;;;;;18.34;55.55;101985.56;5029069;28;19922;-46
2022/06/10 08:34:26;;;;;;;;;;;;;;;18.31;55.66;101991.09;5029944;28;19920;-47
2022/06/10 08:36:51;;;;;;;;;;;;;;;18.30;55.66;101984.94;5025578;28;20384;-48
2022/06/10 08:39:16;;;;;;;;;;;;;;;18.31;55.54;101989.28;5025764;28;19929;-48
2022/06/10 08:42:08;;;;;;;;;;;;;;;18.35;55.63;101981.94;5027675;28;19921;-46
2022/06/10 08:44:33;;;;;;;;;;;;;;;18.41;55.27;101984.16;5036091;28;19921;-48
2022/06/10 08:47:17;;;;;;;;;;;;;;;18.45;55.05;101980.31;5028102;28;19925;-46
2022/06/10 08:49:51;;;;;;;;;;;;;;;18.41;54.93;101976.16;5025412;28;20000;-47
2022/06/10 08:52:22;;;;;;;;;;;;;;;18.38;54.96;101984.34;5018795;28;19975;-46
2022/06/10 08:55:13;;;;;;;;;;;;;;;18.44;54.99;101981.28;5026598;28;19924;-49
2022/06/10 08:57:40;;;;;;;;;;;;;;;18.56;55.04;101984.88;5032381;28;19917;-46
2022/06/10 09:00:23;;;;;;;;;;;;;;;18.66;55.01;101991.22;5033152;28;20012;-49
2022/06/10 09:03:00;;;;;;;;;;;;;;;18.77;54.62;101986.91;5022359;28;20012;-48
2022/06/10 09:05:30;;;;;;;;;;;;;;;18.79;54.39;101990.34;5027745;28;20020;-46
2022/06/10 09:07:59;;;;;;;;;;;;;;;18.74;53.91;101994.22;5030383;28;19917;-47
2022/06/10 09:10:30;;;;;;;;;;;;;;;18.66;53.91;101999.22;5030851;28;19953;-46
2022/06/10 09:13:15;;;;;;;;;;;;;;;18.66;54.33;101990.41;5032236;28;20006;-46
2022/06/10 09:15:46;;;;;;;;;;;;;;;18.75;54.27;101989.72;5024201;28;20438;-46
2022/06/10 09:18:14;;;;;;;;;;;;;;;18.84;53.10;101997.03;5030708;28;19917;-46
2022/06/10 09:20:46;;;;;;;;;;;;;;;18.95;53.22;101990.13;5028464;28;19928;-47
2022/06/10 09:23:25;;;;;;;;;;;;;;;19.02;52.83;101988.69;5027370;28;19946;-46
2022/06/10 09:25:52;;;;;;;;;;;;;;;19.06;52.77;101990.16;5024925;28;19957;-47
2022/06/10 09:28:18;;;;;;;;;;;;;;;19.11;52.00;101989.81;5024926;28;19996;-47
2022/06/10 09:30:43;;;;;;;;;;;;;;;19.13;51.09;102002.09;5021747;28;20048;-47
2022/06/10 09:33:08;;;;;;;;;;;;;;;19.15;51.54;101991.28;5022091;28;19924;-48
2022/06/10 09:35:43;;;;;;;;;;;;;;;19.17;50.93;101994.69;5030473;28;19940;-45
2022/06/10 09:38:08;;;;;;;;;;;;;;;19.25;51.49;102002.97;5024850;28;19962;-46
2022/06/10 09:40:38;;;;;;;;;;;;;;;19.35;51.43;102011.13;5022133;28;20015;-46
2022/06/10 09:43:03;;;;;;;;;;;;;;;19.40;51.29;101997.44;5025483;28;19936;-47
2022/06/10 09:45:31;;;;;;;;;;;;;;;19.49;51.29;101991.44;5024564;28;19921;-47
2022/06/10 09:48:15;;;;;;;;;;;;;;;19.61;51.11;102001.16;5027300;28;20016;-48
2022/06/10 09:50:47;;;;;;;;;;;;;;;19.70;50.44;101991.59;5027224;28;20571;-48
2022/06/10 09:53:27;;;;;;;;;;;;;;;19.71;50.10;101990.63;5025096;28;20384;-48
2022/06/10 09:56:06;;;;;;;;;;;;;;;19.77;49.87;101997.31;5026665;28;19924;-47
2022/06/10 09:58:44;;;;;;;;;;;;;;;19.85;49.63;101986.03;5028716;28;19924;-50
2022/06/10 10:01:33;;;;;;;;;;;;;;;19.90;49.65;102000.75;5023548;28;19960;-45
2022/06/10 10:04:11;;;;;;;;;;;;;;;19.97;49.40;101993.13;5024379;28;20343;-48
2022/06/10 10:06:36;;;;;;;;;;;;;;;20.03;49.58;101992.66;5026344;28;19933;-48
2022/06/10 10:09:08;;;;;;;;;;;;;;;20.04;48.72;101993.50;5025210;28;20300;-48
2022/06/10 10:11:40;;;;;;;;;;;;;;;20.09;49.53;101997.50;5023389;28;19925;-45
2022/06/10 10:14:17;;;;;;;;;;;;;;;20.17;49.25;101994.22;5028950;28;19918;-44
2022/06/10 10:16:45;;;;;;;;;;;;;;;20.28;48.49;101988.03;5025992;28;19960;-48
2022/06/10 10:19:29;;;;;;;;;;;;;;;20.30;48.33;101988.75;5030540;28;19917;-45
2022/06/10 10:21:58;;;;;;;;;;;;;;;20.36;48.94;101984.75;5025859;28;19960;-49
2022/06/10 10:24:24;;;;;;;;;;;;;;;20.44;49.01;101974.28;5020357;28;19921;-45
2022/06/10 10:26:51;;;;;;;;;;;;;;;20.50;48.34;101986.28;5027391;28;19991;-44
2022/06/10 10:29:39;;;;;;;;;;;;;;;20.57;47.77;101974.16;5023223;28;20304;-47
2022/06/10 10:32:11;;;;;;;;;;;;;;;20.58;48.02;101983.00;5029037;28;20003;-45
2022/06/10 10:34:38;;;;;;;;;;;;;;;20.61;47.85;101986.31;5025851;28;19921;-46
2022/06/10 10:37:10;;;;;;;;;;;;;;;20.65;47.89;101984.22;5027651;28;20003;-44
2022/06/10 10:39:38;;;;;;;;;;;;;;;20.65;46.25;101985.06;5029081;28;19936;-46
2022/06/10 10:42:06;;;;;;;;;;;;;;;20.64;46.74;101995.88;5029363;28;19917;-46
2022/06/10 10:44:31;;;;;;;;;;;;;;;20.63;46.90;101989.69;5026852;28;20020;-45
2022/06/10 10:47:09;;;;;;;;;;;;;;;20.63;47.03;101988.84;5026897;28;20048;-44
2022/06/10 10:49:36;;;;;;;;;;;;;;;20.64;46.83;101990.53;5029718;28;19948;-49
2022/06/10 10:52:28;;;;;;;;;;;;;;;20.65;46.49;101982.38;5026965;28;19996;-48
2022/06/10 10:54:59;;;;;;;;;;;;;;;20.63;45.85;101984.34;5019373;28;19948;-48
2022/06/10 10:57:33;;;;;;;;;;;;;;;20.66;46.09;101978.72;5027602;28;20382;-46
2022/06/10 11:00:04;;;;;;;;;;;;;;;20.73;45.73;101978.25;5024319;28;19964;-47
2022/06/10 11:02:35;;;;;;;;;;;;;;;20.80;45.97;101971.44;5025085;28;19920;-48
2022/06/10 11:05:15;;;;;;;;;;;;;;;20.88;45.88;101974.34;5029229;28;19956;-47
2022/06/10 11:07:42;;;;;;;;;;;;;;;20.95;45.52;101972.84;5024208;28;19921;-45
2022/06/10 11:10:07;;;;;;;;;;;;;;;21.02;45.18;101973.22;5025874;28;19964;-44
2022/06/10 11:12:33;;;;;;;;;;;;;;;21.07;45.07;101976.34;5020298;28;19963;-45
2022/06/10 11:15:00;;;;;;;;;;;;;;;21.10;44.84;101975.25;5025888;28;20040;-47
2022/06/10 11:17:25;;;;;;;;;;;;;;;21.14;45.24;101979.34;5029434;28;19921;-44
2022/06/10 11:19:51;;;;;;;;;;;;;;;21.19;44.61;101970.94;5030314;28;19936;-45
2022/06/10 11:22:16;;;;;;;;;;;;;;;21.22;44.92;101974.22;5024834;28;19925;-45
2022/06/10 11:24:46;;;;;;;;;;;;;;;21.27;44.13;101976.50;5029626;28;20345;-45
2022/06/10 11:27:20;;;;;;;;;;;;;;;21.30;43.75;101971.72;5027946;28;19921;-51
2022/06/10 11:29:57;;;;;;;;;;;;;;;21.34;42.94;101979.50;5024346;28;20308;-44
2022/06/10 11:32:24;;;;;;;;;;;;;;;21.40;42.57;101976.34;5029066;28;20328;-44
2022/06/10 11:34:55;;;;;;;;;;;;;;;21.46;42.76;101965.09;5025499;28;19967;-48
2022/06/10 11:37:21;;;;;;;;;;;;;;;21.46;42.33;101976.66;5026053;28;20443;-50
2022/06/10 11:39:48;;;;;;;;;;;;;;;21.50;42.06;101966.53;5027156;28;19917;-45
2022/06/10 11:42:25;;;;;;;;;;;;;;;21.56;41.54;101975.88;5030047;28;20278;-46
2022/06/10 11:44:53;;;;;;;;;;;;;;;21.58;41.09;101979.25;5029160;28;19917;-45
2022/06/10 11:47:23;;;;;;;;;;;;;;;21.60;41.50;101966.63;5025628;28;20012;-44
2022/06/10 11:50:25;;;;;;;;;;;;;;;21.66;41.20;101965.25;5029729;28;19916;-44
2022/06/10 11:53:05;;;;;;;;;;;;;;;21.73;40.65;101963.72;5002442;28;20008;-45
2022/06/10 11:55:33;;;;;;;;;;;;;;;21.76;41.17;101968.81;5018007;28;19923;-45
2022/06/10 12:00:51;;;;;;;;;;;;;;;21.72;40.93;101953.97;5021949;28;19928;-45
2022/06/10 12:03:19;;;;;;;;;;;;;;;21.72;41.09;101952.19;5029746;28;19929;-49
2022/06/10 12:05:44;;;;;;;;;;;;;;;21.77;41.16;101941.06;5029393;28;19928;-46
2022/06/10 12:08:10;;;;;;;;;;;;;;;21.81;40.48;101950.53;5024622;28;19918;-46
2022/06/10 12:10:40;;;;;;;;;;;;;;;21.88;40.25;101949.00;5021399;28;19921;-45
2022/06/10 12:13:09;;;;;;;;;;;;;;;22.02;40.82;101946.94;5027989;28;19917;-45
2022/06/10 12:15:37;;;;;;;;;;;;;;;22.08;40.32;101944.56;5022523;28;19917;-45
2022/06/10 12:18:04;;;;;;;;;;;;;;;22.12;40.44;101950.53;5027519;28;19925;-46
2022/06/10 12:20:41;;;;;;;;;;;;;;;22.14;40.74;101943.19;5032464;28;19944;-45
2022/06/10 12:23:26;;;;;;;;;;;;;;;22.22;40.57;101939.84;5032705;28;19917;-44
2022/06/10 12:26:10;;;;;;;;;;;;;;;22.28;40.58;101941.97;5020393;28;19933;-46
2022/06/10 12:28:35;;;;;;;;;;;;;;;22.34;40.22;101940.56;5028285;28;19917;-44
2022/06/10 12:31:21;;;;;;;;;;;;;;;22.37;40.24;101938.47;5031058;28;19917;-48
2022/06/10 12:34:09;;;;;;;;;;;;;;;22.34;39.11;101937.88;5020141;28;19928;-45
2022/06/10 12:36:42;;;;;;;;;;;;;;;22.33;39.40;101941.53;5037245;28;19979;-45
2022/06/10 12:39:17;;;;;;;;;;;;;;;22.30;38.73;101933.78;5030428;28;20296;-48
2022/06/10 12:41:47;;;;;;;;;;;;;;;22.31;39.15;101928.28;5034025;28;19917;-43
2022/06/10 12:44:15;;;;;;;;;;;;;;;22.34;39.07;101927.16;5028891;28;19972;-46
2022/06/10 12:46:43;;;;;;;;;;;;;;;22.38;38.90;101929.44;5029154;28;19925;-47
2022/06/10 12:49:16;;;;;;;;;;;;;;;22.48;39.67;101928.63;5029585;28;19991;-45
2022/06/10 12:51:43;;;;;;;;;;;;;;;22.60;39.20;101926.69;5029191;28;20066;-44
2022/06/10 12:54:12;;;;;;;;;;;;;;;22.69;39.29;101931.22;5030788;28;19936;-50
2022/06/10 12:56:38;;;;;;;;;;;;;;;22.79;39.25;101926.69;5028128;28;19933;-48
2022/06/10 12:59:12;;;;;;;;;;;;;;;22.89;39.16;101920.50;5032391;28;20300;-44
2022/06/10 13:01:38;;;;;;;;;;;;;;;22.97;38.22;101939.41;5026690;28;19978;-44